Nearby METAR Reports

 

KBED - Bedford, Massachusetts, USA
Distance from station: W 5mi, 9km
Updated: Fri, 23-Feb-2018 2:56pm EST
Overcast
Overcast
 Wind from SE
Wind: SE 9 mph , 15 km/h
Temperature: 37°F , 3°C
Wind Chill: 30°F , -1°C
Dew Point: 30°F , -1°C
Humidity: 75%
Barometer: 1031.2 hPa
Clouds: Overcast
Visibility: 9 miles , 14 km
Cloud details: Mostly cloudy 3000 ft
Mostly cloudy 4200 ft
Overcast 7000 ft
2018/02/23 19:56 KBED 231956Z 13008KT 9SM BKN030 BKN042 OVC070 03/M01 A3045 RMK AO2 RAE34B38E50 SLP328 P0001 T00331011
KBOS - Boston, Massachusetts, USA
Distance from station: SE 11mi, 18km
Updated: Fri, 23-Feb-2018 2:54pm EST
Light rain, Overcast
Light rain, Overcast
 Wind from ESE
Wind: ESE 13 mph , 20 km/h
Temperature: 37°F , 3°C
Wind Chill: 29°F , -2°C
Dew Point: 34°F , 1°C
Humidity: 87%
Barometer: 1032.5 hPa
Summary: Light rain
Clouds: Overcast
Visibility: 10 miles , 16 km
Cloud details: Partly cloudy 3300 ft
Partly cloudy 5000 ft
Overcast 7500 ft
2018/02/23 19:54 KBOS 231954Z 11011KT 10SM -RA SCT033 SCT050 OVC075 03/01 A3049 RMK AO2 RAE1858B17 SLP322 P0000 T00330006
 
KBVY - Beverly, Massachusetts, USA
Distance from station: ENE 17mi, 27km
Updated: Fri, 23-Feb-2018 2:53pm EST
Overcast
Overcast
 Wind from SSE
Wind: SSE 10 mph , 17 km/h
Temperature: 37°F , 3°C
Wind Chill: 30°F , -1°C
Dew Point: 30°F , -1°C
Humidity: 75%
Barometer: 1032.2 hPa
Clouds: Overcast
Visibility: 10 miles , 16 km
Cloud details: Mostly cloudy 6000 ft
Overcast 7000 ft
2018/02/23 19:53 KBVY 231953Z 15009KT 10SM BKN060 OVC070 03/M01 A3048 RMK AO2 RAB20E53 SLP318 P0001 T00331006
KMQE - East Milton, Massachusetts, USA
Distance from station: SSE 17mi, 28km
Updated: Fri, 23-Feb-2018 1:56pm EST
NOT Current

 Wind from SE
Wind: SE 6 mph , 9 km/h
Barometer: 1032.2 hPa
2018/02/23 18:56 KMQE 231856Z AUTO 14005KT A3048 RMK AO1 SLPNO P0001 $
 
KLWM - Lawrence, Massachusetts, USA
Distance from station: N 18mi, 29km
Updated: Fri, 23-Feb-2018 2:54pm EST
Overcast
Overcast
 Wind from ESE
Wind: ESE 7 mph , 11 km/h
Temperature: 41°F , 5°C
Wind Chill: 36°F , 2°C
Dew Point: 27°F , -3°C
Humidity: 57%
Barometer: 1031.8 hPa
Clouds: Overcast
Visibility: 10 miles , 16 km
Cloud details: Few Clouds 4900 ft
Overcast 6000 ft
2018/02/23 19:54 KLWM 231954Z 12006KT 10SM FEW049 OVC060 05/M03 A3047 RMK AO2 RAB12E33 SLP321 P0000 T00501028
KOWD - Norwood, Massachusetts, USA
Distance from station: S 19mi, 31km
Updated: Fri, 23-Feb-2018 2:53pm EST
Overcast
Overcast
 Wind from SSE
Wind: SSE 8 mph , 13 km/h
Temperature: 43°F , 6°C
Wind Chill: 38°F , 3°C
Dew Point: 32°F , 0°C
Humidity: 66%
Barometer: 1031.8 hPa
Clouds: Overcast
Visibility: 10 miles , 16 km
Cloud details: Overcast 6000 ft
2018/02/23 19:53 KOWD 231953Z 16007KT 10SM OVC060 06/00 A3047 RMK AO2 RAB05E37 PRESFR SLP318 P0002 T00560000
 
KASH - Nashua/Boire Fld, New Hampshire, USA
Distance from station: NW 28mi, 45km
Updated: Fri, 23-Feb-2018 2:56pm EST
Overcast
Overcast
 Wind from S
Wind: S 6 mph , 9 km/h
Temperature: 39°F , 4°C
Wind Chill: 35°F , 2°C
Dew Point: 27°F , -3°C
Humidity: 61%
Barometer: 1031.5 hPa
Clouds: Overcast
Visibility: 10 miles , 16 km
Cloud details: Partly cloudy 3300 ft
Mostly cloudy 4100 ft
Overcast 6000 ft
2018/02/23 19:56 KASH 231956Z 17005KT 10SM SCT033 BKN041 OVC060 04/M03 A3046 RMK AO2 RAE04 SLP325 P0000 T00391028
KFIT - Fitchburg, Massachusetts, USA
Distance from station: WNW 29mi, 47km
Updated: Fri, 23-Feb-2018 3:15pm EST
Overcast
Overcast
 Wind from S
Wind: S 8 mph , 13 km/h
Temperature: 39°F , 4°C
Wind Chill: 33°F , 1°C
Dew Point: 36°F , 2°C
Humidity: 87%
Barometer: 1030.5 hPa
Clouds: Overcast
Visibility: 7 miles , 11 km
Cloud details: Partly cloudy 1100 ft
Mostly cloudy 2500 ft
Overcast 3100 ft
2018/02/23 20:15 KFIT 232015Z AUTO 17007KT 7SM SCT011 BKN025 OVC031 04/02 A3043 RMK AO2 T00390017 TSNO
 
KMHT - Manchester, New Hampshire, USA
Distance from station: NNW 35mi, 56km
Updated: Fri, 23-Feb-2018 2:53pm EST
Overcast
Overcast
 Wind from SSE
Wind: SSE 10 mph , 17 km/h
Temperature: 39°F , 4°C
Wind Chill: 32°F , 0°C
Dew Point: 21°F , -6°C
Humidity: 48%
Barometer: 1030.8 hPa
Clouds: Overcast
Visibility: 10 miles , 16 km
Cloud details: Mostly cloudy 3500 ft
Overcast 6000 ft
2018/02/23 19:53 KMHT 231953Z 15009KT 10SM BKN035 OVC060 04/M06 A3044 RMK AO2 SLP325 T00441061
KGHG - Marshfield, Massachusetts, USA
Distance from station: SE 37mi, 59km
Updated: Fri, 23-Feb-2018 3:15pm EST
Mostly cloudy
Mostly cloudy
 Wind from SSE
Wind: SSE 10 mph , 17 km/h, Gust: 18 mph , 30 km/h
Temperature: 39°F , 4°C
Wind Chill: 32°F , 0°C
Dew Point: 34°F , 1°C
Humidity: 81%
Barometer: 1031.8 hPa
Clouds: Mostly cloudy
Visibility: 10 miles , 16 km
Cloud details: Partly cloudy 3100 ft
Partly cloudy 4900 ft
Mostly cloudy 6000 ft
2018/02/23 20:15 KGHG 232015Z AUTO 15009G16KT 10SM SCT031 SCT049 BKN060 04/01 A3047 RMK AO2
 
KORH - Worcester, Massachusetts, USA
Distance from station: WSW 37mi, 59km
Updated: Fri, 23-Feb-2018 2:54pm EST
Overcast
Overcast
 Wind from SE
Wind: SE 9 mph , 15 km/h
Temperature: 34°F , 1°C
Wind Chill: 27°F , -3°C
Dew Point: 30°F , -1°C
Humidity: 87%
Barometer: 1029.8 hPa
Clouds: Overcast
Visibility: 10 miles , 16 km
Cloud details: Partly cloudy 600 ft
Mostly cloudy 1000 ft
Overcast 4500 ft
2018/02/23 19:54 KORH 231954Z 13008KT 10SM SCT006 BKN010 OVC045 01/M01 A3041 RMK AO2 RAE49UPB47E48 SLP312 P0003 T00061006
KSFZ - Pawtucket, Rhode Island, USA
Distance from station: SSW 41mi, 65km
Updated: Fri, 23-Feb-2018 3:32pm EST
Overcast
Overcast
 
Temperature: 36°F , 2°C
Dew Point: 34°F , 1°C
Humidity: 93%
Barometer: 1030.5 hPa
Clouds: Overcast
Visibility: 10 miles , 16 km
Cloud details: Overcast 1100 ft
2018/02/23 20:32 KSFZ 232032Z AUTO 10SM UP OVC011 02/01 A3043 RMK AO2 RAE03UPB03 P0000 FZRANO $
 
KTAN - Taunton, Massachusetts, USA
Distance from station: SSE 41mi, 66km
Updated: Fri, 23-Feb-2018 2:52pm EST
Overcast
Overcast
 Wind from SSE
Wind: SSE 6 mph , 9 km/h
Temperature: 39°F , 4°C
Wind Chill: 35°F , 2°C
Dew Point: 30°F , -1°C
Humidity: 70%
Barometer: 1032.5 hPa
Clouds: Overcast
Visibility: 10 miles , 16 km
Cloud details: Mostly cloudy 3900 ft
Overcast 6000 ft
2018/02/23 19:52 KTAN 231952Z AUTO 16005KT 10SM BKN039 OVC060 04/M01 A3049 RMK AO2 RAB05E38 SLP326 P0000 T00441006
KPYM - Plymouth, Massachusetts, USA
Distance from station: SSE 44mi, 71km
Updated: Fri, 23-Feb-2018 2:52pm EST
Overcast
Overcast
 Wind from varies
Wind: varies 7 mph , 11 km/h
Temperature: 41°F , 5°C
Wind Chill: 36°F , 2°C
Dew Point: 30°F , -1°C
Humidity: 66%
Barometer: 1032.5 hPa
Clouds: Overcast
Visibility: 10 miles , 16 km
Cloud details: Overcast 7000 ft
2018/02/23 19:52 KPYM 231952Z AUTO VRB06KT 10SM OVC070 05/M01 A3049 RMK AO2 RAE1858B21E51 SLP326 P0001 T00501006
 
KPSM - Portsmouth/Pease, New Hampshire, USA
Distance from station: NNE 46mi, 74km
Updated: Fri, 23-Feb-2018 2:56pm EST
Overcast
Overcast
 Wind from SE
Wind: SE 15 mph , 24 km/h
Temperature: 37°F , 3°C
Wind Chill: 28°F , -2°C
Dew Point: 27°F , -3°C
Humidity: 65%
Barometer: 1031.2 hPa
Clouds: Overcast
Visibility: 10 miles , 16 km
Cloud details: Few Clouds 3000 ft
Partly cloudy 6500 ft
Mostly cloudy 10000 ft
Overcast 25000 ft
2018/02/23 19:56 KPSM 231956Z 14013KT 10SM FEW030 SCT065 BKN100 OVC250 03/M03 A3045 RMK AO2A SLP315 T00311031
KAFN - Jaffrey, New Hampshire, USA
Distance from station: WNW 47mi, 76km
Updated: Fri, 23-Feb-2018 2:52pm EST
Overcast
Overcast
 Wind from SSE
Wind: SSE 9 mph , 15 km/h
Temperature: 34°F , 1°C
Wind Chill: 27°F , -3°C
Dew Point: 30°F , -1°C
Humidity: 87%
Barometer: 1029.5 hPa
Clouds: Overcast
Visibility: 10 miles , 16 km
Cloud details: Mostly cloudy 1700 ft
Mostly cloudy 2500 ft
Overcast 3000 ft
2018/02/23 19:52 KAFN 231952Z AUTO 16008KT 10SM BKN017 BKN025 OVC030 01/M01 A3040 RMK AO2 RAB04E21 SLP315 P0000 T00111011